createdAt,value
2019-01-20T00:01:35.031Z,97750.28
2019-01-20T00:03:36.640Z,97748.61
2019-01-20T00:05:38.852Z,97753.77
2019-01-20T00:07:40.493Z,97751.59
2019-01-20T00:09:42.090Z,97752.08
2019-01-20T00:11:43.700Z,97746.13
2019-01-20T00:13:45.291Z,97750.88
2019-01-20T00:15:46.883Z,97744.14
2019-01-20T00:17:48.482Z,97741.59
2019-01-20T00:19:50.122Z,97737.82
2019-01-20T00:21:51.732Z,97739.11
2019-01-20T00:23:53.330Z,97738.33
2019-01-20T00:25:54.936Z,97740.48
2019-01-20T00:27:56.534Z,97741.33
2019-01-20T00:29:58.143Z,97734.91
2019-01-20T00:31:59.796Z,97740.48
2019-01-20T00:34:01.404Z,97730.27
2019-01-20T00:36:03.006Z,97739.66
2019-01-20T00:38:04.652Z,97733.28
2019-01-20T00:40:06.249Z,97732.50
2019-01-20T00:42:07.931Z,97731.62
2019-01-20T00:44:09.539Z,97733.22
2019-01-20T00:46:11.152Z,97738.27
2019-01-20T00:48:12.749Z,97736.98
2019-01-20T00:50:14.392Z,97740.46
2019-01-20T00:52:16.114Z,97741.31
2019-01-20T00:54:17.727Z,97739.55
2019-01-20T00:56:19.322Z,97738.28
2019-01-20T00:58:20.958Z,97738.31
2019-01-20T01:00:22.553Z,97737.45
2019-01-20T01:02:24.145Z,97735.39
2019-01-20T01:04:25.760Z,97734.53
2019-01-20T01:06:27.368Z,97736.13
2019-01-20T01:08:28.994Z,97733.02
2019-01-20T01:10:30.594Z,97734.64
2019-01-20T01:12:32.224Z,97733.80
2019-01-20T01:14:33.834Z,97735.06
2019-01-20T01:16:35.443Z,97731.14
2019-01-20T01:18:37.056Z,97727.74
2019-01-20T01:20:38.644Z,97726.47
2019-01-20T01:22:40.238Z,97728.19
2019-01-20T01:24:41.852Z,97727.74
2019-01-20T01:26:43.451Z,97721.79
2019-01-20T01:28:45.063Z,97723.48
2019-01-20T01:30:46.670Z,97720.13
2019-01-20T01:32:48.252Z,97718.02
2019-01-20T01:34:49.878Z,97713.77
2019-01-20T01:36:51.474Z,97714.70
2019-01-20T01:38:53.070Z,97707.13
2019-01-20T01:40:54.666Z,97701.63
2019-01-20T01:42:56.261Z,97693.97
2019-01-20T01:44:57.881Z,97698.67
2019-01-20T01:46:59.477Z,97693.98
2019-01-20T01:49:01.074Z,97696.11
2019-01-20T01:51:02.669Z,97699.58
2019-01-20T01:53:04.305Z,97692.36
2019-01-20T01:55:05.901Z,97691.51
2019-01-20T01:57:07.507Z,97659.30
2019-01-20T01:59:09.106Z,97694.91
2019-01-20T02:01:10.704Z,97698.30
2019-01-20T02:03:12.301Z,97694.00
2019-01-20T02:05:13.922Z,97685.83
2019-01-20T02:07:15.542Z,97685.88
2019-01-20T02:09:17.123Z,97685.06
2019-01-20T02:11:18.733Z,97684.70
2019-01-20T02:13:20.329Z,97687.30
2019-01-20T02:15:21.923Z,97678.85
2019-01-20T02:17:23.552Z,97680.54
2019-01-20T02:19:25.163Z,97675.52
2019-01-20T02:21:26.771Z,97676.80
2019-01-20T02:23:28.384Z,97676.81
2019-01-20T02:25:29.996Z,97671.34
2019-01-20T02:27:31.579Z,97673.96
2019-01-20T02:29:33.183Z,97673.88
2019-01-20T02:31:34.792Z,97675.09
2019-01-20T02:33:36.385Z,97670.01
2019-01-20T02:35:37.998Z,97673.41
2019-01-20T02:37:39.619Z,97672.54
2019-01-20T02:39:41.231Z,97672.45
2019-01-20T02:41:42.837Z,97671.09
2019-01-20T02:43:44.443Z,97668.55
2019-01-20T02:45:46.068Z,97677.30
2019-01-20T02:47:47.704Z,97672.54
2019-01-20T02:49:49.294Z,97668.22
2019-01-20T02:51:50.889Z,97669.83
2019-01-20T02:53:52.477Z,97665.02
2019-01-20T02:55:54.097Z,97673.45
2019-01-20T02:57:55.694Z,97675.13
2019-01-20T02:59:57.315Z,97664.50
2019-01-20T03:01:58.915Z,97668.63
2019-01-20T03:04:00.527Z,97670.58
2019-01-20T03:06:02.138Z,97667.42
2019-01-20T03:08:03.757Z,97671.67
2019-01-20T03:10:05.362Z,97663.16
2019-01-20T03:12:07.006Z,97666.56
2019-01-20T03:14:08.612Z,97666.58
2019-01-20T03:16:10.219Z,97667.44
2019-01-20T03:18:11.858Z,97661.53
2019-01-20T03:20:13.509Z,97660.69
2019-01-20T03:22:15.126Z,97671.28
2019-01-20T03:24:16.721Z,97661.54
2019-01-20T03:26:18.317Z,97663.27
2019-01-20T03:28:19.917Z,97664.11
2019-01-20T03:30:21.524Z,97662.03
2019-01-20T03:32:23.167Z,97665.81
2019-01-20T03:34:24.797Z,97669.70
2019-01-20T03:36:26.420Z,97661.19
2019-01-20T03:38:28.072Z,97655.66
2019-01-20T03:40:29.666Z,97655.67
2019-01-20T03:42:31.280Z,97661.98
2019-01-20T03:44:32.942Z,97657.78
2019-01-20T03:46:34.558Z,97661.54
2019-01-20T03:48:36.149Z,97657.72
2019-01-20T03:50:37.769Z,97659.41
2019-01-20T03:52:39.366Z,97653.36
2019-01-20T03:54:40.980Z,97650.31
2019-01-20T03:56:42.565Z,97653.28
2019-01-20T03:58:44.223Z,97641.73
2019-01-20T04:00:45.832Z,97643.07
2019-01-20T04:02:47.452Z,97646.41
2019-01-20T04:04:49.108Z,97639.59
2019-01-20T04:06:50.715Z,97642.92
2019-01-20T04:08:52.313Z,97643.02
2019-01-20T04:10:53.897Z,97641.43
2019-01-20T04:12:55.490Z,97637.55
2019-01-20T04:14:57.086Z,97641.87
2019-01-20T04:16:58.726Z,97638.03
2019-01-20T04:19:01.040Z,97641.02
2019-01-20T04:21:02.672Z,97640.17
2019-01-20T04:23:04.319Z,97635.49
2019-01-20T04:25:05.915Z,97635.93
2019-01-20T04:27:07.519Z,97632.56
2019-01-20T04:29:09.142Z,97636.78
2019-01-20T04:31:10.743Z,97632.48
2019-01-20T04:33:12.354Z,97632.00
2019-01-20T04:35:14.062Z,97633.72
2019-01-20T04:37:15.683Z,97632.41
2019-01-20T04:39:17.272Z,97632.79
2019-01-20T04:41:18.869Z,97632.23
2019-01-20T04:43:20.467Z,97628.41
2019-01-20T04:45:22.060Z,97635.48
2019-01-20T04:47:23.690Z,97633.05
2019-01-20T04:49:25.300Z,97629.73
2019-01-20T04:51:26.908Z,97634.69
2019-01-20T04:53:28.517Z,97628.50
2019-01-20T04:55:30.122Z,97630.53
2019-01-20T04:57:31.734Z,97639.84
2019-01-20T04:59:33.347Z,97632.16
2019-01-20T05:01:35.007Z,97630.53
2019-01-20T05:03:36.636Z,97631.83
2019-01-20T05:05:38.230Z,97633.95
2019-01-20T05:07:39.825Z,97632.73
2019-01-20T05:09:41.464Z,97630.11
2019-01-20T05:11:43.061Z,97637.20
2019-01-20T05:13:44.683Z,97635.07
2019-01-20T05:15:46.268Z,97637.95
2019-01-20T05:17:47.868Z,97626.89
2019-01-20T05:19:49.512Z,97647.40
2019-01-20T05:21:51.095Z,97636.74
2019-01-20T05:23:52.691Z,97636.69
2019-01-20T05:25:54.285Z,97635.65
2019-01-20T05:27:55.886Z,97635.23
2019-01-20T05:29:57.513Z,97631.24
2019-01-20T05:31:59.133Z,97647.34
2019-01-20T05:34:00.729Z,97645.23
2019-01-20T05:36:02.368Z,97647.36
2019-01-20T05:38:03.966Z,97639.66
2019-01-20T05:40:05.602Z,97639.18
2019-01-20T05:42:07.210Z,97637.48
2019-01-20T05:44:08.834Z,97643.44
2019-01-20T05:46:10.515Z,97637.11
2019-01-20T05:48:12.124Z,97642.66
2019-01-20T05:50:13.730Z,97645.66
2019-01-20T05:52:15.372Z,97646.92
2019-01-20T05:54:16.964Z,97636.33
2019-01-20T05:56:18.558Z,97641.02
2019-01-20T05:58:20.143Z,97648.28
2019-01-20T06:00:21.731Z,97641.89
2019-01-20T06:02:23.345Z,97652.55
2019-01-20T06:04:24.994Z,97651.25
2019-01-20T06:06:26.599Z,97649.14
2019-01-20T06:08:28.199Z,97651.75
2019-01-20T06:10:29.810Z,97649.57
2019-01-20T06:12:31.424Z,97657.67
2019-01-20T06:14:33.066Z,97654.32
2019-01-20T06:16:34.680Z,97659.77
2019-01-20T06:18:36.292Z,97658.06
2019-01-20T06:20:37.888Z,97664.97
2019-01-20T06:22:39.482Z,97672.12
2019-01-20T06:24:41.119Z,97669.99
2019-01-20T06:26:42.732Z,97667.86
2019-01-20T06:28:44.344Z,97669.39
2019-01-20T06:30:45.941Z,97665.99
2019-01-20T06:32:47.538Z,97670.00
2019-01-20T06:34:49.147Z,97672.97
2019-01-20T06:36:50.787Z,97677.66
2019-01-20T06:38:52.371Z,97672.14
2019-01-20T06:40:53.971Z,97673.05
2019-01-20T06:43:01.635Z,97678.97
2019-01-20T06:44:57.235Z,97679.45
2019-01-20T06:46:58.848Z,97679.81
2019-01-20T06:49:00.475Z,97687.06
2019-01-20T06:51:02.079Z,97688.84
2019-01-20T06:53:03.680Z,97701.62
2019-01-20T06:55:05.274Z,97697.86
2019-01-20T06:57:06.888Z,97709.72
2019-01-20T06:59:08.550Z,97707.98
2019-01-20T07:01:10.195Z,97708.85
2019-01-20T07:03:11.968Z,97712.25
2019-01-20T07:05:13.553Z,97714.81
2019-01-20T07:07:15.188Z,97719.95
2019-01-20T07:09:16.827Z,97723.16
2019-01-20T07:11:18.425Z,97723.71
2019-01-20T07:13:20.081Z,97729.44
2019-01-20T07:15:21.710Z,97727.58
2019-01-20T07:17:23.324Z,97729.08
2019-01-20T07:19:24.980Z,97732.64
2019-01-20T07:21:26.581Z,97733.09
2019-01-20T07:23:28.174Z,97732.28
2019-01-20T07:25:29.824Z,97734.37
2019-01-20T07:27:31.421Z,97731.44
2019-01-20T07:29:33.031Z,97735.33
2019-01-20T07:31:34.615Z,97733.13
2019-01-20T07:33:36.279Z,97730.09
2019-01-20T07:35:37.877Z,97729.60
2019-01-20T07:37:39.473Z,97746.05
2019-01-20T07:39:41.076Z,97733.47
2019-01-20T07:41:42.684Z,97730.01
2019-01-20T07:43:44.294Z,97732.55
2019-01-20T07:45:45.922Z,97740.56
2019-01-20T07:47:47.521Z,97736.39
2019-01-20T07:49:49.179Z,97739.86
2019-01-20T07:51:50.776Z,97742.33
2019-01-20T07:53:52.379Z,97743.55
2019-01-20T07:55:53.996Z,97750.81
2019-01-20T07:57:55.607Z,97751.28
2019-01-20T07:59:57.229Z,97757.00
2019-01-20T08:01:58.827Z,97756.28
2019-01-20T08:04:00.435Z,97762.23
2019-01-20T08:06:02.034Z,97759.34
2019-01-20T08:08:03.687Z,97767.68
2019-01-20T08:10:05.289Z,97765.19
2019-01-20T08:12:06.907Z,97767.55
2019-01-20T08:14:08.541Z,97769.60
2019-01-20T08:16:10.152Z,97777.17
2019-01-20T08:18:11.759Z,97773.31
2019-01-20T08:20:13.371Z,97775.16
2019-01-20T08:22:14.983Z,97769.80
2019-01-20T08:24:16.591Z,97763.19
2019-01-20T08:26:18.189Z,97767.48
2019-01-20T08:28:19.798Z,97774.08
2019-01-20T08:30:21.427Z,97766.84
2019-01-20T08:32:23.025Z,97773.99
2019-01-20T08:34:24.623Z,97774.39
2019-01-20T08:36:26.399Z,97771.95
2019-01-20T08:38:27.906Z,97775.45
2019-01-20T08:40:29.507Z,97772.27
2019-01-20T08:42:31.101Z,97773.25
2019-01-20T08:44:32.711Z,97778.53
2019-01-20T08:46:34.325Z,97774.90
2019-01-20T08:48:35.967Z,97778.06
2019-01-20T08:50:37.556Z,97775.67
2019-01-20T08:52:39.177Z,97774.25
2019-01-20T08:54:40.908Z,97779.88
2019-01-20T08:56:42.561Z,97782.44
2019-01-20T08:58:44.144Z,97779.93
2019-01-20T09:00:45.741Z,97783.79
2019-01-20T09:02:47.373Z,97777.95
2019-01-20T09:04:48.968Z,97783.91
2019-01-20T09:06:50.566Z,97779.64
2019-01-20T09:08:52.165Z,97783.94
2019-01-20T09:10:53.781Z,97783.64
2019-01-20T09:12:55.381Z,97783.24
2019-01-20T09:14:57.036Z,97785.48
2019-01-20T09:16:58.633Z,97780.90
2019-01-20T09:19:00.220Z,97791.23
2019-01-20T09:21:01.839Z,97787.07
2019-01-20T09:23:03.433Z,97793.16
2019-01-20T09:25:05.056Z,97792.82
2019-01-20T09:27:06.642Z,97793.27
2019-01-20T09:29:08.247Z,97792.02
2019-01-20T09:31:09.919Z,97792.52
2019-01-20T09:33:11.592Z,97795.53
2019-01-20T09:35:13.886Z,97798.09
2019-01-20T09:37:15.508Z,97798.11
2019-01-20T09:39:17.116Z,97797.32
2019-01-20T09:41:18.714Z,97799.86
2019-01-20T09:43:20.354Z,97808.75
2019-01-20T09:45:22.439Z,97799.80
2019-01-20T09:47:24.120Z,97801.80
2019-01-20T09:49:25.771Z,97802.91
2019-01-20T09:51:27.355Z,97800.31
2019-01-20T09:53:28.958Z,97803.91
2019-01-20T09:55:30.586Z,97801.38
2019-01-20T09:57:32.186Z,97797.14
2019-01-20T09:59:33.800Z,97796.97
2019-01-20T10:01:35.395Z,97794.53
2019-01-20T10:03:37.052Z,97799.34
2019-01-20T10:05:38.665Z,97794.64
2019-01-20T10:07:40.305Z,97802.83
2019-01-20T10:09:41.911Z,97800.81
2019-01-20T10:11:43.523Z,97799.19
2019-01-20T10:13:45.151Z,97800.44
2019-01-20T10:15:46.804Z,97798.69
2019-01-20T10:17:48.416Z,97791.99
2019-01-20T10:19:50.756Z,97800.26
2019-01-20T10:21:52.409Z,97798.78
2019-01-20T10:23:53.997Z,97794.17
2019-01-20T10:25:55.605Z,97797.34
2019-01-20T10:27:57.245Z,97797.27
2019-01-20T10:29:58.845Z,97795.08
2019-01-20T10:32:00.456Z,97795.09
2019-01-20T10:34:02.067Z,97797.87
2019-01-20T10:36:03.680Z,97802.10
2019-01-20T10:38:05.356Z,97800.55
2019-01-20T10:40:06.992Z,97801.13
2019-01-20T10:42:08.656Z,97802.06
2019-01-20T10:44:10.268Z,97802.70
2019-01-20T10:46:11.873Z,97799.14
2019-01-20T10:48:13.497Z,97796.16
2019-01-20T10:50:15.099Z,97801.60
2019-01-20T10:52:16.756Z,97805.91
2019-01-20T10:54:18.354Z,97803.61
2019-01-20T10:56:19.955Z,97801.78
2019-01-20T10:58:21.602Z,97768.67
2019-01-20T11:00:23.222Z,97799.89
2019-01-20T11:02:24.830Z,97806.66
2019-01-20T11:04:26.429Z,97808.63
2019-01-20T11:06:28.029Z,97806.70
2019-01-20T11:08:29.625Z,97788.88
2019-01-20T11:10:31.240Z,97805.00
2019-01-20T11:12:32.847Z,97797.87
2019-01-20T11:14:34.487Z,97803.80
2019-01-20T11:16:36.085Z,97801.54
2019-01-20T11:18:37.701Z,97805.66
2019-01-20T11:20:39.381Z,97758.11
2019-01-20T11:22:41.137Z,97805.50
2019-01-20T11:24:42.834Z,97810.36
2019-01-20T11:26:44.478Z,97813.48
2019-01-20T11:28:46.092Z,97792.67
2019-01-20T11:30:47.698Z,97806.14
2019-01-20T11:32:49.351Z,97805.75
2019-01-20T11:34:50.968Z,97808.36
2019-01-20T11:36:52.577Z,97811.20
2019-01-20T11:38:54.186Z,97809.42
2019-01-20T11:40:56.715Z,97814.11
2019-01-20T11:42:58.314Z,97813.95
2019-01-20T11:44:59.961Z,97813.39
2019-01-20T11:47:01.676Z,97807.59
2019-01-20T11:49:03.286Z,97813.14
2019-01-20T11:51:04.886Z,97810.38
2019-01-20T11:53:06.482Z,97812.73
2019-01-20T11:55:08.120Z,97805.74
2019-01-20T11:57:09.749Z,97804.02
2019-01-20T11:59:11.361Z,97802.40
2019-01-20T12:01:12.976Z,97798.52
2019-01-20T12:03:14.621Z,97799.71
2019-01-20T12:05:16.209Z,97798.41
2019-01-20T12:07:17.817Z,97803.45
2019-01-20T12:09:19.422Z,97803.45
2019-01-20T12:11:21.030Z,97792.44
2019-01-20T12:13:22.659Z,97800.95
2019-01-20T12:15:24.298Z,97799.27
2019-01-20T12:17:25.893Z,97800.99
2019-01-20T12:19:27.552Z,97792.08
2019-01-20T12:21:29.188Z,97790.02
2019-01-20T12:23:31.418Z,97786.52
2019-01-20T12:25:33.023Z,97791.66
2019-01-20T12:27:34.664Z,97792.34
2019-01-20T12:29:36.262Z,97792.69
2019-01-20T12:31:37.845Z,97786.98
2019-01-20T12:33:39.446Z,97800.44
2019-01-20T12:35:41.055Z,97791.48
2019-01-20T12:37:42.653Z,97788.34
2019-01-20T12:39:44.298Z,97786.98
2019-01-20T12:41:45.899Z,97785.69
2019-01-20T12:43:47.517Z,97783.08
2019-01-20T12:45:49.142Z,97790.29
2019-01-20T12:47:50.760Z,97785.52
2019-01-20T12:49:52.390Z,97783.84
2019-01-20T12:51:53.980Z,97778.27
2019-01-20T12:53:55.583Z,97786.41
2019-01-20T12:55:57.198Z,97782.20
2019-01-20T12:57:58.818Z,97782.91
2019-01-20T13:00:00.432Z,97786.39
2019-01-20T13:02:02.064Z,97781.67
2019-01-20T13:04:03.679Z,97782.53
2019-01-20T13:06:05.297Z,97767.86
2019-01-20T13:08:06.942Z,97779.97
2019-01-20T13:10:08.543Z,97791.09
2019-01-20T13:12:10.164Z,97792.36
2019-01-20T13:14:11.768Z,97791.57
2019-01-20T13:16:13.370Z,97782.14
2019-01-20T13:18:15.676Z,97790.24
2019-01-20T13:20:17.380Z,97794.64
2019-01-20T13:22:19.003Z,97788.17
2019-01-20T13:24:20.588Z,97795.94
2019-01-20T13:26:22.190Z,97796.50
2019-01-20T13:28:23.789Z,97788.05
2019-01-20T13:30:25.389Z,97791.90
2019-01-20T13:32:27.019Z,97789.45
2019-01-20T13:34:28.625Z,97783.63
2019-01-20T13:36:30.222Z,97796.52
2019-01-20T13:38:31.865Z,97791.06
2019-01-20T13:40:33.480Z,97790.71
2019-01-20T13:42:35.085Z,97793.81
2019-01-20T13:44:36.743Z,97792.07
2019-01-20T13:46:38.346Z,97807.61
2019-01-20T13:48:39.945Z,97801.72
2019-01-20T13:50:41.594Z,97796.70
2019-01-20T13:52:43.205Z,97802.75
2019-01-20T13:54:44.819Z,97796.08
2019-01-20T13:56:46.425Z,97797.36
2019-01-20T13:58:48.196Z,97798.66
2019-01-20T14:00:49.909Z,97797.45
2019-01-20T14:02:51.532Z,97800.44
2019-01-20T14:04:53.145Z,97801.72
2019-01-20T14:06:54.742Z,97802.06
2019-01-20T14:08:56.376Z,97810.66
2019-01-20T14:10:57.983Z,97812.39
2019-01-20T14:12:59.649Z,97793.36
2019-01-20T14:15:01.275Z,97812.31
2019-01-20T14:17:02.878Z,97809.73
2019-01-20T14:19:04.492Z,97810.15
2019-01-20T14:21:06.987Z,97815.59
2019-01-20T14:23:08.581Z,97814.62
2019-01-20T14:25:10.187Z,97816.23
2019-01-20T14:27:11.843Z,97814.50
2019-01-20T14:29:13.442Z,97822.12
2019-01-20T14:31:15.041Z,97819.55
2019-01-20T14:33:16.709Z,97820.33
2019-01-20T14:35:18.377Z,97822.02
2019-01-20T14:37:20.050Z,97833.53
2019-01-20T14:39:21.665Z,97830.48
2019-01-20T14:41:23.284Z,97826.16
2019-01-20T14:43:24.922Z,97824.47
2019-01-20T14:45:26.518Z,97833.30
2019-01-20T14:47:28.143Z,97824.56
2019-01-20T14:49:29.741Z,97825.11
2019-01-20T14:51:31.341Z,97825.95
2019-01-20T14:53:32.952Z,97827.81
2019-01-20T14:55:35.987Z,97831.27
2019-01-20T14:57:36.707Z,97832.83
2019-01-20T14:59:38.348Z,97838.77
2019-01-20T15:01:39.963Z,97837.72
2019-01-20T15:03:41.561Z,97833.33
2019-01-20T15:05:43.154Z,97839.41
2019-01-20T15:07:44.841Z,97836.00
2019-01-20T15:09:46.447Z,97841.73
2019-01-20T15:11:48.127Z,97840.96
2019-01-20T15:13:49.783Z,97838.44
2019-01-20T15:15:51.442Z,97845.61
2019-01-20T15:17:53.054Z,97842.13
2019-01-20T15:19:54.687Z,97843.66
2019-01-20T15:21:56.328Z,97844.51
2019-01-20T15:23:57.966Z,97843.72
2019-01-20T15:25:59.569Z,97847.69
2019-01-20T15:28:01.160Z,97856.54
2019-01-20T15:30:02.914Z,97857.19
2019-01-20T15:32:04.517Z,97860.45
2019-01-20T15:34:06.117Z,97865.70
2019-01-20T15:36:07.718Z,97861.52
2019-01-20T15:38:09.343Z,97858.46
2019-01-20T15:40:10.963Z,97862.15
2019-01-20T15:42:12.650Z,97862.03
2019-01-20T15:44:14.412Z,97864.78
2019-01-20T15:46:16.135Z,97865.42
2019-01-20T15:48:17.749Z,97863.73
2019-01-20T15:50:19.391Z,97866.75
2019-01-20T15:52:20.993Z,97866.07
2019-01-20T15:54:22.665Z,97869.13
2019-01-20T15:56:24.303Z,97862.98
2019-01-20T15:58:26.751Z,97873.73
2019-01-20T16:00:27.619Z,97871.39
2019-01-20T16:02:29.241Z,97861.73
2019-01-20T16:04:30.900Z,97878.45
2019-01-20T16:06:32.510Z,97877.92
2019-01-20T16:08:34.118Z,97870.65
2019-01-20T16:10:35.795Z,97861.39
2019-01-20T16:12:37.406Z,97875.67
2019-01-20T16:14:39.006Z,97876.94
2019-01-20T16:16:40.628Z,97880.87
2019-01-20T16:18:42.250Z,97879.97
2019-01-20T16:20:43.874Z,97886.48
2019-01-20T16:22:45.668Z,97893.48
2019-01-20T16:24:47.404Z,97894.16
2019-01-20T16:26:49.071Z,97884.87
2019-01-20T16:28:50.701Z,97872.41
2019-01-20T16:30:52.341Z,97889.62
2019-01-20T16:32:54.022Z,97888.59
2019-01-20T16:34:55.634Z,97884.95
2019-01-20T16:36:57.233Z,97887.70
2019-01-20T16:38:58.880Z,97886.55
2019-01-20T16:41:00.472Z,97892.91
2019-01-20T16:43:02.159Z,97895.05
2019-01-20T16:45:03.796Z,97890.53
2019-01-20T16:47:05.399Z,97895.73
2019-01-20T16:49:07.037Z,97897.06
2019-01-20T16:51:08.652Z,97877.70
2019-01-20T16:53:10.268Z,97906.77
2019-01-20T16:55:11.916Z,97908.41
2019-01-20T16:57:13.519Z,97907.84
2019-01-20T16:59:15.133Z,97919.02
2019-01-20T17:01:16.826Z,97917.68
2019-01-20T17:03:18.560Z,97920.79
2019-01-20T17:05:20.158Z,97927.41
2019-01-20T17:07:21.858Z,97928.14
2019-01-20T17:09:23.503Z,97928.65
2019-01-20T17:11:25.088Z,97930.23
2019-01-20T17:13:26.688Z,97935.69
2019-01-20T17:15:28.309Z,97937.80
2019-01-20T17:17:30.533Z,97933.95
2019-01-20T17:19:32.170Z,97935.66
2019-01-20T17:21:33.770Z,97940.57
2019-01-20T17:23:35.370Z,97938.91
2019-01-20T17:25:37.007Z,97940.82
2019-01-20T17:27:38.610Z,97945.39
2019-01-20T17:29:40.209Z,97940.27
2019-01-20T17:31:41.825Z,97950.28
2019-01-20T17:33:43.458Z,97950.50
2019-01-20T17:35:45.146Z,97952.19
2019-01-20T17:37:46.742Z,97951.19
2019-01-20T17:39:48.399Z,97955.64
2019-01-20T17:41:49.998Z,97953.75
2019-01-20T17:43:51.597Z,97954.48
2019-01-20T17:45:53.357Z,97957.95
2019-01-20T17:47:54.955Z,97958.72
2019-01-20T17:49:56.567Z,97955.34
2019-01-20T17:51:58.170Z,97956.02
2019-01-20T17:53:59.810Z,97958.34
2019-01-20T17:56:01.406Z,97960.33
2019-01-20T17:58:03.670Z,97965.59
2019-01-20T18:00:05.320Z,97970.84
2019-01-20T18:02:06.932Z,97963.37
2019-01-20T18:04:08.545Z,97974.55
2019-01-20T18:06:10.169Z,97972.75
2019-01-20T18:08:11.765Z,97976.33
2019-01-20T18:10:13.416Z,97979.38
2019-01-20T18:12:15.015Z,97978.66
2019-01-20T18:14:16.610Z,97983.22
2019-01-20T18:16:18.205Z,97985.64
2019-01-20T18:18:19.826Z,97983.31
2019-01-20T18:20:21.415Z,97982.80
2019-01-20T18:22:23.050Z,97980.31
2019-01-20T18:24:24.642Z,97982.11
2019-01-20T18:26:26.256Z,97993.00
2019-01-20T18:28:27.894Z,97990.18
2019-01-20T18:30:29.497Z,97991.86
2019-01-20T18:32:31.096Z,97992.02
2019-01-20T18:34:32.752Z,97994.38
2019-01-20T18:36:34.369Z,97997.36
2019-01-20T18:38:35.974Z,97995.05
2019-01-20T18:40:37.729Z,97999.28
2019-01-20T18:42:39.503Z,97999.04
2019-01-20T18:44:41.099Z,97997.69
2019-01-20T18:46:42.709Z,98001.63
2019-01-20T18:48:44.313Z,98008.84
2019-01-20T18:50:45.925Z,98011.91
2019-01-20T18:52:47.568Z,98006.22
2019-01-20T18:54:49.172Z,98009.95
2019-01-20T18:56:50.872Z,97994.87
2019-01-20T18:58:52.479Z,98013.30
2019-01-20T19:00:54.073Z,98017.11
2019-01-20T19:02:55.685Z,98008.49
2019-01-20T19:04:57.439Z,98006.45
2019-01-20T19:06:59.175Z,98014.38
2019-01-20T19:09:00.767Z,98010.70
2019-01-20T19:11:02.410Z,98014.17
2019-01-20T19:13:04.030Z,98017.59
2019-01-20T19:15:05.629Z,98025.74
2019-01-20T19:17:07.267Z,98025.94
2019-01-20T19:19:08.893Z,98025.16
2019-01-20T19:21:10.544Z,98035.98
2019-01-20T19:23:12.242Z,98040.66
2019-01-20T19:25:13.829Z,98004.91
2019-01-20T19:27:15.439Z,98006.85
2019-01-20T19:29:17.047Z,98043.93
2019-01-20T19:31:18.646Z,98039.56
2019-01-20T19:33:20.242Z,98043.77
2019-01-20T19:35:21.844Z,98048.28
2019-01-20T19:37:23.482Z,98045.79
2019-01-20T19:39:25.083Z,98052.33
2019-01-20T19:41:26.689Z,98048.66
2019-01-20T19:43:28.361Z,98055.05
2019-01-20T19:45:30.066Z,98053.84
2019-01-20T19:47:31.714Z,98053.09
2019-01-20T19:49:33.363Z,98055.89
2019-01-20T19:51:34.980Z,98081.04
2019-01-20T19:53:36.565Z,98054.32
2019-01-20T19:55:38.234Z,98057.75
2019-01-20T19:57:39.824Z,98062.00
2019-01-20T19:59:41.471Z,98058.63
2019-01-20T20:01:43.087Z,98061.27
2019-01-20T20:03:44.700Z,98063.00
2019-01-20T20:05:46.312Z,98068.30
2019-01-20T20:07:47.910Z,98066.73
2019-01-20T20:09:49.556Z,98064.16
2019-01-20T20:11:51.154Z,98068.83
2019-01-20T20:13:52.759Z,98072.42
2019-01-20T20:15:54.364Z,98074.23
2019-01-20T20:17:57.002Z,98073.34
2019-01-20T20:19:58.695Z,98075.59
2019-01-20T20:22:00.516Z,98049.63
2019-01-20T20:24:02.100Z,98087.39
2019-01-20T20:26:03.712Z,98086.17
2019-01-20T20:28:05.360Z,98091.44
2019-01-20T20:30:06.957Z,98079.45
2019-01-20T20:32:08.574Z,98090.30
2019-01-20T20:34:10.164Z,98056.53
2019-01-20T20:36:11.758Z,98093.80
2019-01-20T20:38:13.354Z,98095.80
2019-01-20T20:40:14.993Z,98095.82
2019-01-20T20:42:16.579Z,98094.89
2019-01-20T20:44:18.173Z,98095.23
2019-01-20T20:46:19.765Z,98098.58
2019-01-20T20:48:21.358Z,98097.94
2019-01-20T20:50:22.975Z,98094.62
2019-01-20T20:52:24.599Z,98097.20
2019-01-20T20:54:26.216Z,98099.86
2019-01-20T20:56:27.814Z,98103.31
2019-01-20T20:58:29.450Z,98105.95
2019-01-20T21:00:31.088Z,98102.22
2019-01-20T21:02:32.692Z,98106.46
2019-01-20T21:04:34.336Z,98107.80
2019-01-20T21:06:35.939Z,98112.85
2019-01-20T21:08:37.536Z,98108.80
2019-01-20T21:10:39.179Z,98111.88
2019-01-20T21:12:40.801Z,98110.75
2019-01-20T21:14:42.481Z,98113.28
2019-01-20T21:16:44.074Z,98118.36
2019-01-20T21:18:45.671Z,98116.63
2019-01-20T21:20:47.307Z,98123.96
2019-01-20T21:22:48.951Z,98131.30
2019-01-20T21:24:50.536Z,98132.97
2019-01-20T21:26:52.130Z,98131.14
2019-01-20T21:28:53.779Z,98094.15
2019-01-20T21:30:55.392Z,98139.14
2019-01-20T21:32:56.997Z,98135.98
2019-01-20T21:34:58.625Z,98134.04
2019-01-20T21:37:00.214Z,98124.19
2019-01-20T21:39:01.852Z,98147.19
2019-01-20T21:41:03.449Z,98146.91
2019-01-20T21:43:05.042Z,98144.02
2019-01-20T21:45:06.653Z,98152.27
2019-01-20T21:47:08.266Z,98157.11
2019-01-20T21:49:09.916Z,98153.20
2019-01-20T21:51:12.180Z,98159.23
2019-01-20T21:53:13.809Z,98157.64
2019-01-20T21:55:15.446Z,98179.36
2019-01-20T21:57:17.056Z,98168.84
2019-01-20T21:59:18.673Z,98168.39
2019-01-20T22:01:20.283Z,98166.95
2019-01-20T22:03:21.892Z,98168.66
2019-01-20T22:05:23.508Z,98162.83
2019-01-20T22:07:25.147Z,98163.27
2019-01-20T22:09:26.742Z,98164.22
2019-01-20T22:11:28.341Z,98167.45
2019-01-20T22:13:29.943Z,98173.04
2019-01-20T22:15:31.541Z,98166.69
2019-01-20T22:17:33.137Z,98167.69
2019-01-20T22:19:34.784Z,98172.48
2019-01-20T22:21:36.395Z,98174.23
2019-01-20T22:23:37.981Z,98176.91
2019-01-20T22:25:39.577Z,98175.14
2019-01-20T22:27:41.187Z,98166.34
2019-01-20T22:29:42.781Z,98166.02
2019-01-20T22:31:44.374Z,98170.43
2019-01-20T22:33:45.996Z,98177.19
2019-01-20T22:35:47.728Z,98178.50
2019-01-20T22:37:49.333Z,98178.50
2019-01-20T22:39:50.931Z,98177.38
2019-01-20T22:41:52.623Z,98171.87
2019-01-20T22:43:54.290Z,98167.17
2019-01-20T22:45:55.899Z,98171.48
2019-01-20T22:47:57.523Z,98170.61
2019-01-20T22:49:59.130Z,98174.47
2019-01-20T22:52:00.744Z,98173.95
2019-01-20T22:54:02.341Z,98178.20
2019-01-20T22:56:03.937Z,98172.77
2019-01-20T22:58:05.578Z,98177.85
2019-01-20T23:00:07.188Z,98186.23
2019-01-20T23:02:08.818Z,98181.63
2019-01-20T23:04:10.427Z,98172.66
2019-01-20T23:06:12.012Z,98174.81
2019-01-20T23:08:13.618Z,98187.64
2019-01-20T23:10:15.251Z,98188.84
2019-01-20T23:12:16.849Z,98179.94
2019-01-20T23:14:18.449Z,98185.74
2019-01-20T23:16:20.059Z,98192.73
2019-01-20T23:18:21.702Z,98200.20
2019-01-20T23:20:23.294Z,98198.52
2019-01-20T23:22:24.904Z,98193.77
2019-01-20T23:24:26.525Z,98189.08
2019-01-20T23:26:28.127Z,98193.52
2019-01-20T23:28:29.711Z,98193.59
2019-01-20T23:30:31.334Z,98198.17
2019-01-20T23:32:32.943Z,98194.77
2019-01-20T23:34:34.572Z,98200.41
2019-01-20T23:36:36.184Z,98190.67
2019-01-20T23:38:38.447Z,98194.20
2019-01-20T23:40:40.080Z,98199.00
2019-01-20T23:42:41.696Z,98202.46
2019-01-20T23:44:43.290Z,98208.05
2019-01-20T23:46:44.900Z,98202.19
2019-01-20T23:48:46.529Z,98200.58